Darstellungsparameter: Aktuell verwendete Einstellungen:
Skalierung der Graphiken ... ?
xyx+y,   Skalierungsfaktor:      Skalierung: Modus: x, Faktor: 1
Darstellungszeitraum ... ?
Vom - - bis: - -   Zeitraum: 25.08.2020 - 27.08.2020
Min/Max/Avg-Anzeige ... ?
Zeige MMA aktuell
Zeige MMA Monat
Zeige MMA alles
Zeige --A aktuell
Zeige --A Monat
Zeige --A alles
Keine MMA-Anzeige
MMA:
Average (ber die Originaldaten)
MMA-Basis: 25.08.2020 - 27.08.2020
Quicknavigation für Darstellung... ?
Tage:      1T, 2T, 3T, 5T -1T -2T -3T -5T +1T +2T +3T +5T
Wochen: 1W, 2W, 3W -1W -2W -3W +1W +2W +3W
Monate: 1M, 3M, 6M -1M -3M -6M +1M +3M +6M
Jahre:    1J, 3J, 5J, 10J -1J -3J -5J -10J +1J +3J +5J +10J
Nutze für die Darstellung ... ?
Originaldaten oder Mittelwerte auf ...
Stundenbasis Tagesbasis Wochenbasis
Monatsbasis Jahresbasis      Datenbasis: Original-Daten
Darstellen als:
Statistik (Auto) Statistik J:M      Darstellung:
Zur Graphik,    zurück zur Übersicht aller Sensoren.
 
Tabellarische Datenbersicht: ?
 
Sensor: Nr:Datum:Temp:Abs-Feuchte:Windchill:Wind:
Aussen-T/F 1 25-08-2020 00:00:00 16.9 C 11.22 g/m*3 16.9 C 0 km/h
2 25-08-2020 00:05:00 16.9 C 11.36 g/m*3 16.9 C 0 km/h
3 25-08-2020 00:10:00 16.9 C 11.22 g/m*3 16.9 C 0 km/h
4 25-08-2020 00:15:00 16.8 C 11.29 g/m*3 16.8 C 0 km/h
5 25-08-2020 00:20:00 16.8 C 11.29 g/m*3 16.8 C 0 km/h
6 25-08-2020 00:25:00 16.8 C 11.29 g/m*3 16.8 C 0 km/h
7 25-08-2020 00:30:00 16.8 C 11.44 g/m*3 16.8 C 3.2 km/h
8 25-08-2020 00:35:00 16.8 C 11.29 g/m*3 16.8 C 0 km/h
9 25-08-2020 00:40:00 16.8 C 11.29 g/m*3 16.8 C 0 km/h
10 25-08-2020 00:45:00 16.8 C 11.44 g/m*3 16.8 C 0 km/h
11 25-08-2020 00:50:00 16.8 C 11.29 g/m*3 16.8 C 0 km/h
12 25-08-2020 00:55:00 16.9 C 11.22 g/m*3 16.9 C 0 km/h
13 25-08-2020 01:00:00 16.9 C 11.22 g/m*3 16.9 C 0 km/h
14 25-08-2020 01:05:00 16.9 C 11.22 g/m*3 16.9 C 0 km/h
15 25-08-2020 01:10:00 17.1 C 11.35 g/m*3 17.1 C 0 km/h
16 25-08-2020 01:15:00 17.1 C 11.5 g/m*3 17.1 C 0 km/h
17 25-08-2020 01:20:00 17.1 C 11.35 g/m*3 17.1 C 0 km/h
18 25-08-2020 01:25:00 17.1 C 11.5 g/m*3 17.1 C 0 km/h
19 25-08-2020 01:30:00 17.1 C 11.5 g/m*3 17.1 C 0 km/h
20 25-08-2020 01:35:00 17.1 C 11.5 g/m*3 17.1 C 0 km/h
21 25-08-2020 01:40:00 17.1 C 11.5 g/m*3 17.1 C 0 km/h
22 25-08-2020 01:45:00 17 C 11.43 g/m*3 17 C 0 km/h
23 25-08-2020 01:50:00 16.9 C 11.36 g/m*3 16.9 C 0 km/h
24 25-08-2020 01:55:00 16.9 C 11.36 g/m*3 16.9 C 0 km/h
25 25-08-2020 02:00:00 16.9 C 11.51 g/m*3 16.9 C 0 km/h
Sensor: Nr:Datum:Temp:Abs-Feuchte:Windchill:Wind:
Aussen-T/F 26 25-08-2020 02:05:00 16.9 C 11.36 g/m*3 16.9 C 0 km/h
27 25-08-2020 02:10:00 16.8 C 11.44 g/m*3 16.8 C 0 km/h
28 25-08-2020 02:15:00 16.8 C 11.44 g/m*3 16.8 C 0 km/h
29 25-08-2020 02:20:00 16.8 C 11.58 g/m*3 16.8 C 0 km/h
30 25-08-2020 02:25:00 16.8 C 11.72 g/m*3 16.8 C 4.8 km/h
31 25-08-2020 02:30:00 16.8 C 11.87 g/m*3 16.8 C 3.2 km/h
32 25-08-2020 02:35:00 16.7 C 11.8 g/m*3 16.7 C 1.6 km/h
33 25-08-2020 02:40:00 16.7 C 11.94 g/m*3 16.7 C 1.6 km/h
34 25-08-2020 02:45:00 16.6 C 11.72 g/m*3 16.6 C 0 km/h
35 25-08-2020 02:50:00 16.6 C 11.87 g/m*3 16.6 C 0 km/h
36 25-08-2020 02:55:00 16.5 C 11.8 g/m*3 16.5 C 0 km/h
37 25-08-2020 03:00:00 16.4 C 11.72 g/m*3 16.4 C 0 km/h
38 25-08-2020 03:05:00 16.3 C 11.65 g/m*3 16.3 C 0 km/h
39 25-08-2020 03:10:00 16.2 C 11.58 g/m*3 16.2 C 0 km/h
40 25-08-2020 03:15:00 16.2 C 11.58 g/m*3 16.2 C 0 km/h
41 25-08-2020 03:20:00 16.1 C 11.65 g/m*3 16.1 C 0 km/h
42 25-08-2020 03:25:00 16.1 C 11.65 g/m*3 16.1 C 0 km/h
43 25-08-2020 03:30:00 16.1 C 11.65 g/m*3 16.1 C 0 km/h
44 25-08-2020 03:35:00 15.9 C 11.51 g/m*3 15.9 C 0 km/h
45 25-08-2020 03:40:00 15.9 C 11.51 g/m*3 15.9 C 0 km/h
46 25-08-2020 03:45:00 15.8 C 11.44 g/m*3 15.8 C 0 km/h
47 25-08-2020 03:50:00 15.7 C 11.37 g/m*3 15.7 C 0 km/h
48 25-08-2020 03:55:00 15.6 C 11.3 g/m*3 15.6 C 3.2 km/h
49 25-08-2020 04:00:00 15.4 C 11.04 g/m*3 15.4 C 3.2 km/h
50 25-08-2020 04:05:00 15.3 C 10.97 g/m*3 15.3 C 4.8 km/h
Sensor: Nr:Datum:Temp:Abs-Feuchte:Windchill:Wind:
Aussen-T/F 51 25-08-2020 04:10:00 15.2 C 11.03 g/m*3 15.2 C 4.8 km/h
52 25-08-2020 04:15:00 15.1 C 10.97 g/m*3 15.1 C 4.8 km/h
53 25-08-2020 04:20:00 14.9 C 10.83 g/m*3 14.9 C 6.4 km/h
54 25-08-2020 04:25:00 14.8 C 10.77 g/m*3 14.8 C 3.2 km/h
55 25-08-2020 04:30:00 14.7 C 10.83 g/m*3 14.7 C 3.2 km/h
56 25-08-2020 04:35:00 14.6 C 10.76 g/m*3 14.6 C 3.2 km/h
57 25-08-2020 04:40:00 14.4 C 10.63 g/m*3 14.4 C 4.8 km/h
58 25-08-2020 04:45:00 14.3 C 10.69 g/m*3 14.3 C 0 km/h
59 25-08-2020 04:50:00 14.3 C 10.69 g/m*3 14.3 C 0 km/h
60 25-08-2020 04:55:00 14.2 C 10.62 g/m*3 14.2 C 0 km/h
61 25-08-2020 05:00:00 14.1 C 10.68 g/m*3 14.1 C 0 km/h
62 25-08-2020 05:05:00 13.9 C 10.55 g/m*3 13.9 C 0 km/h
63 25-08-2020 05:10:00 13.8 C 10.48 g/m*3 13.8 C 0 km/h
64 25-08-2020 05:15:00 13.8 C 10.48 g/m*3 13.8 C 0 km/h
65 25-08-2020 05:20:00 13.7 C 10.54 g/m*3 13.7 C 0 km/h
66 25-08-2020 05:25:00 13.7 C 10.54 g/m*3 13.7 C 0 km/h
67 25-08-2020 05:30:00 13.6 C 10.47 g/m*3 13.6 C 0 km/h
68 25-08-2020 05:35:00 13.5 C 10.41 g/m*3 13.5 C 0 km/h
69 25-08-2020 05:40:00 13.4 C 10.35 g/m*3 13.4 C 0 km/h
70 25-08-2020 05:45:00 13.3 C 10.28 g/m*3 13.3 C 0 km/h
71 25-08-2020 05:50:00 13.3 C 10.4 g/m*3 13.3 C 0 km/h
72 25-08-2020 05:55:00 13.2 C 10.33 g/m*3 13.2 C 0 km/h
73 25-08-2020 06:00:00 13.2 C 10.33 g/m*3 13.2 C 0 km/h
74 25-08-2020 06:05:00 13.1 C 10.27 g/m*3 13.1 C 0 km/h
75 25-08-2020 06:10:00 13.1 C 10.38 g/m*3 13.1 C 0 km/h
Sensor: Nr:Datum:Temp:Abs-Feuchte:Windchill:Wind:
Aussen-T/F 76 25-08-2020 06:15:00 13.1 C 10.38 g/m*3 13.1 C 0 km/h
77 25-08-2020 06:20:00 13 C 10.32 g/m*3 13 C 0 km/h
78 25-08-2020 06:25:00 12.9 C 10.26 g/m*3 12.9 C 0 km/h
79 25-08-2020 06:30:00 12.8 C 10.19 g/m*3 12.8 C 0 km/h
80 25-08-2020 06:35:00 12.8 C 10.19 g/m*3 12.8 C 0 km/h
81 25-08-2020 06:40:00 12.8 C 10.19 g/m*3 12.8 C 0 km/h
82 25-08-2020 06:45:00 12.8 C 10.3 g/m*3 12.8 C 0 km/h
83 25-08-2020 06:50:00 12.8 C 10.3 g/m*3 12.8 C 0 km/h
84 25-08-2020 06:55:00 12.9 C 10.48 g/m*3 12.9 C 0 km/h
85 25-08-2020 07:00:00 13 C 10.43 g/m*3 13 C 0 km/h
86 25-08-2020 07:05:00 13.1 C 10.5 g/m*3 13.1 C 0 km/h
87 25-08-2020 07:10:00 13.1 C 10.5 g/m*3 13.1 C 0 km/h
88 25-08-2020 07:15:00 13.1 C 10.5 g/m*3 13.1 C 0 km/h
89 25-08-2020 07:20:00 13.2 C 10.56 g/m*3 13.2 C 0 km/h
90 25-08-2020 07:25:00 13.2 C 10.68 g/m*3 13.2 C 0 km/h
91 25-08-2020 07:30:00 13.3 C 10.74 g/m*3 13.3 C 0 km/h
92 25-08-2020 07:35:00 13.4 C 10.81 g/m*3 13.4 C 0 km/h
93 25-08-2020 07:40:00 13.5 C 10.88 g/m*3 13.5 C 0 km/h
94 25-08-2020 07:45:00 13.6 C 10.95 g/m*3 13.6 C 0 km/h
95 25-08-2020 07:50:00 13.7 C 11.01 g/m*3 13.7 C 0 km/h
96 25-08-2020 07:55:00 13.8 C 11.08 g/m*3 13.8 C 0 km/h
97 25-08-2020 08:00:00 13.9 C 11.15 g/m*3 13.9 C 0 km/h
98 25-08-2020 08:05:00 14.1 C 11.29 g/m*3 14.1 C 0 km/h
99 25-08-2020 08:10:00 14.2 C 11.23 g/m*3 14.2 C 1.6 km/h
100 25-08-2020 08:15:00 14.3 C 11.3 g/m*3 14.3 C 0 km/h
Sensor: Nr:Datum:Temp:Abs-Feuchte:Windchill:Wind:
Aussen-T/F 101 25-08-2020 08:20:00 14.5 C 11.32 g/m*3 14.5 C 0 km/h
102 25-08-2020 08:25:00 14.7 C 11.33 g/m*3 14.7 C 0 km/h
103 25-08-2020 08:30:00 14.8 C 11.4 g/m*3 14.8 C 3.2 km/h
104 25-08-2020 08:35:00 15 C 11.41 g/m*3 15 C 3.2 km/h
105 25-08-2020 08:40:00 15.1 C 11.35 g/m*3 15.1 C 0 km/h
106 25-08-2020 08:45:00 15.2 C 11.42 g/m*3 15.2 C 0 km/h
107 25-08-2020 08:50:00 15.3 C 11.49 g/m*3 15.3 C 0 km/h
108 25-08-2020 08:55:00 15.4 C 11.43 g/m*3 15.4 C 0 km/h
109 25-08-2020 09:00:00 15.4 C 11.43 g/m*3 15.4 C 0 km/h
110 25-08-2020 09:05:00 15.6 C 11.57 g/m*3 15.6 C 0 km/h
111 25-08-2020 09:10:00 15.6 C 11.44 g/m*3 15.6 C 0 km/h
112 25-08-2020 09:15:00 15.7 C 11.51 g/m*3 15.7 C 0 km/h
113 25-08-2020 09:20:00 15.8 C 11.58 g/m*3 15.8 C 0 km/h
114 25-08-2020 09:25:00 15.9 C 11.65 g/m*3 15.9 C 0 km/h
115 25-08-2020 09:30:00 15.9 C 11.51 g/m*3 15.9 C 1.6 km/h
116 25-08-2020 09:35:00 16.1 C 11.65 g/m*3 16.1 C 0 km/h
117 25-08-2020 09:40:00 16.1 C 11.51 g/m*3 16.1 C 0 km/h
118 25-08-2020 09:45:00 16.3 C 11.79 g/m*3 16.3 C 0 km/h
119 25-08-2020 09:50:00 16.3 C 11.65 g/m*3 16.3 C 0 km/h
120 25-08-2020 09:55:00 16.4 C 11.58 g/m*3 16.4 C 0 km/h
121 25-08-2020 10:00:00 16.6 C 11.72 g/m*3 16.6 C 0 km/h
122 25-08-2020 10:05:00 16.7 C 11.65 g/m*3 16.7 C 0 km/h
123 25-08-2020 10:10:00 16.8 C 11.72 g/m*3 16.8 C 0 km/h
124 25-08-2020 10:15:00 16.9 C 11.79 g/m*3 16.9 C 0 km/h
125 25-08-2020 10:20:00 17 C 11.87 g/m*3 17 C 1.6 km/h
Sensor: Nr:Datum:Temp:Abs-Feuchte:Windchill:Wind:
Aussen-T/F 126 25-08-2020 10:25:00 17.1 C 11.94 g/m*3 17.1 C 0 km/h
127 25-08-2020 10:30:00 17.1 C 11.94 g/m*3 17.1 C 0 km/h
128 25-08-2020 10:35:00 17.2 C 12.01 g/m*3 17.2 C 0 km/h
129 25-08-2020 10:40:00 17.3 C 11.93 g/m*3 17.3 C 0 km/h
130 25-08-2020 10:45:00 17.4 C 12 g/m*3 17.4 C 1.6 km/h
131 25-08-2020 10:50:00 17.6 C 12.15 g/m*3 17.6 C 0 km/h
132 25-08-2020 10:55:00 17.8 C 12.29 g/m*3 17.8 C 1.6 km/h
133 25-08-2020 11:00:00 18.1 C 12.36 g/m*3 18.1 C 0 km/h
134 25-08-2020 11:05:00 18.3 C 12.35 g/m*3 18.3 C 4.8 km/h
135 25-08-2020 11:10:00 18.5 C 12.34 g/m*3 18.5 C 1.6 km/h
136 25-08-2020 11:15:00 18.8 C 12.56 g/m*3 18.8 C 3.2 km/h
137 25-08-2020 11:20:00 19.1 C 12.46 g/m*3 19.1 C 3.2 km/h
138 25-08-2020 11:25:00 19.4 C 12.18 g/m*3 19.4 C 4.8 km/h
139 25-08-2020 11:30:00 19.7 C 12.4 g/m*3 19.7 C 4.8 km/h
140 25-08-2020 11:35:00 20 C 12.27 g/m*3 20 C 1.6 km/h
141 25-08-2020 11:40:00 20.3 C 11.96 g/m*3 20.3 C 4.8 km/h
142 25-08-2020 11:45:00 20.7 C 11.34 g/m*3 20.7 C 8.1 km/h
143 25-08-2020 11:50:00 21.1 C 11.24 g/m*3 21.1 C 9.7 km/h
144 25-08-2020 11:55:00 21.4 C 11.44 g/m*3 21.4 C 6.4 km/h
145 25-08-2020 12:00:00 21.6 C 11.38 g/m*3 21.6 C 6.4 km/h
146 25-08-2020 12:05:00 21.7 C 11.25 g/m*3 21.7 C 8.1 km/h
147 25-08-2020 12:10:00 21.8 C 11.13 g/m*3 21.8 C 8.1 km/h
148 25-08-2020 12:15:00 21.9 C 11.39 g/m*3 21.9 C 6.4 km/h
149 25-08-2020 12:20:00 21.9 C 11.39 g/m*3 21.9 C 11.3 km/h
150 25-08-2020 12:25:00 21.8 C 11.32 g/m*3 21.8 C 9.7 km/h
Sensor: Nr:Datum:Temp:Abs-Feuchte:Windchill:Wind:
Aussen-T/F 151 25-08-2020 12:30:00 21.8 C 11.51 g/m*3 21.8 C 6.4 km/h
152 25-08-2020 12:35:00 21.8 C 11.51 g/m*3 21.8 C 4.8 km/h
153 25-08-2020 12:40:00 21.9 C 11.39 g/m*3 21.9 C 6.4 km/h
154 25-08-2020 12:45:00 22.1 C 11.52 g/m*3 22.1 C 8.1 km/h
155 25-08-2020 12:50:00 22.2 C 11.58 g/m*3 22.2 C 9.7 km/h
156 25-08-2020 12:55:00 22.3 C 11.45 g/m*3 22.3 C 4.8 km/h
157 25-08-2020 13:00:00 22.4 C 11.32 g/m*3 22.4 C 6.4 km/h
158 25-08-2020 13:05:00 22.4 C 11.52 g/m*3 22.4 C 9.7 km/h
159 25-08-2020 13:10:00 22.4 C 11.32 g/m*3 22.4 C 8.1 km/h
160 25-08-2020 13:15:00 22.4 C 11.32 g/m*3 22.4 C 9.7 km/h
161 25-08-2020 13:20:00 22.5 C 11.39 g/m*3 22.5 C 12.9 km/h
162 25-08-2020 13:25:00 22.6 C 11.65 g/m*3 22.6 C 6.4 km/h
163 25-08-2020 13:30:00 22.7 C 11.31 g/m*3 22.7 C 9.7 km/h
164 25-08-2020 13:35:00 22.8 C 11.38 g/m*3 22.8 C 0 km/h
165 25-08-2020 13:40:00 23 C 12.13 g/m*3 23 C 4.8 km/h
166 25-08-2020 13:45:00 23 C 11.1 g/m*3 23 C 6.4 km/h
167 25-08-2020 13:50:00 22.9 C 11.24 g/m*3 22.9 C 3.2 km/h
168 25-08-2020 13:55:00 22.8 C 11.18 g/m*3 22.8 C 12.9 km/h
169 25-08-2020 14:00:00 22.8 C 11.18 g/m*3 22.8 C 8.1 km/h
170 25-08-2020 14:05:00 22.7 C 11.52 g/m*3 22.7 C 11.3 km/h
171 25-08-2020 14:10:00 22.7 C 11.52 g/m*3 22.7 C 8.1 km/h
172 25-08-2020 14:15:00 22.6 C 11.25 g/m*3 22.6 C 6.4 km/h
173 25-08-2020 14:20:00 22.4 C 11.32 g/m*3 22.4 C 8.1 km/h
174 25-08-2020 14:25:00 22.3 C 11.06 g/m*3 22.3 C 9.7 km/h
175 25-08-2020 14:30:00 22.2 C 11.19 g/m*3 22.2 C 9.7 km/h
Sensor: Nr:Datum:Temp:Abs-Feuchte:Windchill:Wind:
Aussen-T/F 176 25-08-2020 14:35:00 22.2 C 10.99 g/m*3 22.2 C 9.7 km/h
177 25-08-2020 14:40:00 22.3 C 11.26 g/m*3 22.3 C 9.7 km/h
178 25-08-2020 14:45:00 22.3 C 11.06 g/m*3 22.3 C 6.4 km/h
179 25-08-2020 14:50:00 22.3 C 11.06 g/m*3 22.3 C 4.8 km/h
180 25-08-2020 14:55:00 22.3 C 11.45 g/m*3 22.3 C 3.2 km/h
181 25-08-2020 15:00:00 22.3 C 11.45 g/m*3 22.3 C 4.8 km/h
182 25-08-2020 15:05:00 22.3 C 11.65 g/m*3 22.3 C 0 km/h
183 25-08-2020 15:10:00 22.4 C 11.32 g/m*3 22.4 C 4.8 km/h
184 25-08-2020 15:15:00 22.4 C 11.72 g/m*3 22.4 C 0 km/h
185 25-08-2020 15:20:00 22.4 C 11.52 g/m*3 22.4 C 0 km/h
186 25-08-2020 15:25:00 22.4 C 11.72 g/m*3 22.4 C 0 km/h
187 25-08-2020 15:30:00 22.4 C 11.52 g/m*3 22.4 C 0 km/h
188 25-08-2020 15:35:00 22.4 C 12.11 g/m*3 22.4 C 0 km/h
189 25-08-2020 15:40:00 22.4 C 12.31 g/m*3 22.4 C 0 km/h
190 25-08-2020 15:45:00 22.3 C 12.44 g/m*3 22.3 C 0 km/h
191 25-08-2020 15:50:00 22.3 C 12.05 g/m*3 22.3 C 1.6 km/h
192 25-08-2020 15:55:00 22.3 C 13.82 g/m*3 22.3 C 0 km/h
193 25-08-2020 16:00:00 22.1 C 13.86 g/m*3 22.1 C 6.4 km/h
194 25-08-2020 16:05:00 21.8 C 14.2 g/m*3 21.8 C 4.8 km/h
195 25-08-2020 16:10:00 21.4 C 14.44 g/m*3 21.4 C 0 km/h
196 25-08-2020 16:15:00 21.1 C 14.56 g/m*3 21.1 C 0 km/h
197 25-08-2020 16:20:00 20.9 C 14.75 g/m*3 20.9 C 0 km/h
198 25-08-2020 16:25:00 20.8 C 14.49 g/m*3 20.8 C 0 km/h
199 25-08-2020 16:30:00 20.6 C 13.96 g/m*3 20.6 C 1.6 km/h
200 25-08-2020 16:35:00 20.6 C 13.96 g/m*3 20.6 C 0 km/h
Sensor: Nr:Datum:Temp:Abs-Feuchte:Windchill:Wind:
Aussen-T/F 201 25-08-2020 16:40:00 20.7 C 14.04 g/m*3 20.7 C 0 km/h
202 25-08-2020 16:45:00 20.8 C 14.67 g/m*3 20.8 C 0 km/h
203 25-08-2020 16:50:00 20.9 C 14.75 g/m*3 20.9 C 0 km/h
204 25-08-2020 16:55:00 21 C 14.84 g/m*3 21 C 0 km/h
205 25-08-2020 17:00:00 21 C 14.65 g/m*3 21 C 0 km/h
206 25-08-2020 17:05:00 21.1 C 14.92 g/m*3 21.1 C 3.2 km/h
207 25-08-2020 17:10:00 21.1 C 14.92 g/m*3 21.1 C 0 km/h
208 25-08-2020 17:15:00 21.2 C 14.83 g/m*3 21.2 C 1.6 km/h
209 25-08-2020 17:20:00 21.2 C 14.64 g/m*3 21.2 C 0 km/h
210 25-08-2020 17:25:00 21.3 C 14.35 g/m*3 21.3 C 0 km/h
211 25-08-2020 17:30:00 21.3 C 13.61 g/m*3 21.3 C 0 km/h
212 25-08-2020 17:35:00 21.4 C 14.44 g/m*3 21.4 C 1.6 km/h
213 25-08-2020 17:40:00 21.6 C 13.85 g/m*3 21.6 C 1.6 km/h
214 25-08-2020 17:45:00 21.8 C 12.85 g/m*3 21.8 C 3.2 km/h
215 25-08-2020 17:50:00 22.5 C 12.58 g/m*3 22.5 C 3.2 km/h
216 25-08-2020 17:55:00 23.4 C 13.25 g/m*3 23.4 C 0 km/h
217 25-08-2020 18:00:00 24.4 C 12.46 g/m*3 24.4 C 0 km/h
218 25-08-2020 18:05:00 25.1 C 12.5 g/m*3 25.1 C 3.2 km/h
219 25-08-2020 18:10:00 25.6 C 12.14 g/m*3 25.6 C 6.4 km/h
220 25-08-2020 18:15:00 25.9 C 11.62 g/m*3 25.9 C 6.4 km/h
221 25-08-2020 18:20:00 26.2 C 12.8 g/m*3 26.2 C 1.6 km/h
222 25-08-2020 18:25:00 26.4 C 12.45 g/m*3 26.4 C 6.4 km/h
223 25-08-2020 18:30:00 26.7 C 11.64 g/m*3 26.7 C 9.7 km/h
224 25-08-2020 18:35:00 26.6 C 12.08 g/m*3 26.6 C 14.5 km/h
225 25-08-2020 18:40:00 26.8 C 11.96 g/m*3 26.8 C 6.4 km/h
Sensor: Nr:Datum:Temp:Abs-Feuchte:Windchill:Wind:
Aussen-T/F 226 25-08-2020 18:45:00 27 C 11.58 g/m*3 27 C 8.1 km/h
227 25-08-2020 18:50:00 26.8 C 11.71 g/m*3 26.8 C 9.7 km/h
228 25-08-2020 18:55:00 26.6 C 11.33 g/m*3 26.6 C 6.4 km/h
229 25-08-2020 19:00:00 26.7 C 11.9 g/m*3 26.7 C 3.2 km/h
230 25-08-2020 19:05:00 26.6 C 11.58 g/m*3 26.6 C 6.4 km/h
231 25-08-2020 19:10:00 26.5 C 12.77 g/m*3 26.5 C 4.8 km/h
232 25-08-2020 19:15:00 26.3 C 11.39 g/m*3 26.3 C 6.4 km/h
233 25-08-2020 19:20:00 26.2 C 11.82 g/m*3 26.2 C 3.2 km/h
234 25-08-2020 19:25:00 25.9 C 12.35 g/m*3 25.9 C 3.2 km/h
235 25-08-2020 19:30:00 25.5 C 11.13 g/m*3 25.5 C 9.7 km/h
236 25-08-2020 19:35:00 24.9 C 12.36 g/m*3 24.9 C 6.4 km/h
237 25-08-2020 19:40:00 24.6 C 12.38 g/m*3 24.6 C 1.6 km/h
238 25-08-2020 19:45:00 24.2 C 12.1 g/m*3 24.2 C 0 km/h
239 25-08-2020 19:50:00 23.7 C 12.41 g/m*3 23.7 C 0 km/h
240 25-08-2020 19:55:00 23.4 C 12.2 g/m*3 23.4 C 0 km/h
241 25-08-2020 20:00:00 23.1 C 12.2 g/m*3 23.1 C 0 km/h
242 25-08-2020 20:05:00 22.9 C 11.65 g/m*3 22.9 C 0 km/h
243 25-08-2020 20:10:00 22.8 C 11.99 g/m*3 22.8 C 3.2 km/h
244 25-08-2020 20:15:00 22.7 C 11.92 g/m*3 22.7 C 0 km/h
245 25-08-2020 20:20:00 22.5 C 10.79 g/m*3 22.5 C 4.8 km/h
246 25-08-2020 20:25:00 22.4 C 10.33 g/m*3 22.4 C 3.2 km/h
247 25-08-2020 20:30:00 22.6 C 11.85 g/m*3 22.6 C 0 km/h
248 25-08-2020 20:35:00 22.5 C 11.58 g/m*3 22.5 C 0 km/h
249 25-08-2020 20:40:00 22.4 C 10.33 g/m*3 22.4 C 6.4 km/h
250 25-08-2020 20:45:00 22.6 C 11.45 g/m*3 22.6 C 3.2 km/h
Sensor: Nr:Datum:Temp:Abs-Feuchte:Windchill:Wind:
Aussen-T/F 251 25-08-2020 20:50:00 22.6 C 11.05 g/m*3 22.6 C 4.8 km/h
252 25-08-2020 20:55:00 22.4 C 11.32 g/m*3 22.4 C 3.2 km/h
253 25-08-2020 21:00:00 22.3 C 10.66 g/m*3 22.3 C 1.6 km/h
254 25-08-2020 21:05:00 22.2 C 10.99 g/m*3 22.2 C 1.6 km/h
255 25-08-2020 21:10:00 22 C 10.67 g/m*3 22 C 1.6 km/h
256 25-08-2020 21:15:00 21.8 C 11.32 g/m*3 21.8 C 4.8 km/h
257 25-08-2020 21:20:00 21.6 C 10.81 g/m*3 21.6 C 0 km/h
258 25-08-2020 21:25:00 21.3 C 10.62 g/m*3 21.3 C 4.8 km/h
259 25-08-2020 21:30:00 21.1 C 11.06 g/m*3 21.1 C 4.8 km/h
260 25-08-2020 21:35:00 20.8 C 10.86 g/m*3 20.8 C 0 km/h
261 25-08-2020 21:40:00 20.7 C 10.8 g/m*3 20.7 C 8.1 km/h
262 25-08-2020 21:45:00 20.7 C 10.8 g/m*3 20.7 C 0 km/h
263 25-08-2020 21:50:00 20.6 C 10.56 g/m*3 20.6 C 0 km/h
264 25-08-2020 21:55:00 20.5 C 10.5 g/m*3 20.5 C 0 km/h
265 25-08-2020 22:00:00 20.5 C 10.5 g/m*3 20.5 C 6.4 km/h
266 25-08-2020 22:05:00 20.6 C 10.38 g/m*3 20.6 C 3.2 km/h
267 25-08-2020 22:10:00 20.7 C 10.44 g/m*3 20.7 C 0 km/h
268 25-08-2020 22:15:00 20.7 C 10.44 g/m*3 20.7 C 4.8 km/h
269 25-08-2020 22:20:00 20.7 C 10.44 g/m*3 20.7 C 6.4 km/h
270 25-08-2020 22:25:00 20.8 C 10.5 g/m*3 20.8 C 3.2 km/h
271 25-08-2020 22:30:00 20.8 C 10.5 g/m*3 20.8 C 8.1 km/h
272 25-08-2020 22:35:00 20.8 C 10.14 g/m*3 20.8 C 1.6 km/h
273 25-08-2020 22:40:00 20.9 C 10.2 g/m*3 20.9 C 3.2 km/h
274 25-08-2020 22:45:00 21.1 C 10.13 g/m*3 21.1 C 4.8 km/h
275 25-08-2020 22:50:00 21.2 C 10.38 g/m*3 21.2 C 1.6 km/h
Sensor: Nr:Datum:Temp:Abs-Feuchte:Windchill:Wind:
Aussen-T/F 276 25-08-2020 22:55:00 21.2 C 10.38 g/m*3 21.2 C 0 km/h
277 25-08-2020 23:00:00 21.1 C 10.32 g/m*3 21.1 C 0 km/h
278 25-08-2020 23:05:00 21.1 C 10.32 g/m*3 21.1 C 1.6 km/h
279 25-08-2020 23:10:00 21.1 C 10.32 g/m*3 21.1 C 1.6 km/h
280 25-08-2020 23:15:00 21.1 C 10.5 g/m*3 21.1 C 8.1 km/h
281 25-08-2020 23:20:00 21.2 C 10.38 g/m*3 21.2 C 8.1 km/h
282 25-08-2020 23:25:00 21.2 C 10.75 g/m*3 21.2 C 1.6 km/h
283 25-08-2020 23:30:00 21.1 C 10.69 g/m*3 21.1 C 0 km/h
284 25-08-2020 23:35:00 20.9 C 10.75 g/m*3 20.9 C 1.6 km/h
285 25-08-2020 23:40:00 20.8 C 10.5 g/m*3 20.8 C 3.2 km/h
286 25-08-2020 23:45:00 20.7 C 10.62 g/m*3 20.7 C 1.6 km/h
287 25-08-2020 23:50:00 20.7 C 10.8 g/m*3 20.7 C 0 km/h
288 25-08-2020 23:55:00 20.6 C 10.74 g/m*3 20.6 C 0 km/h
289 26-08-2020 00:00:00 20.6 C 10.74 g/m*3 20.6 C 0 km/h
290 26-08-2020 00:05:00 20.6 C 10.56 g/m*3 20.6 C 12.9 km/h
291 26-08-2020 00:10:00 20.6 C 10.74 g/m*3 20.6 C 1.6 km/h
292 26-08-2020 00:15:00 20.7 C 10.62 g/m*3 20.7 C 8.1 km/h
293 26-08-2020 00:20:00 21.1 C 10.87 g/m*3 21.1 C 6.4 km/h
294 26-08-2020 00:25:00 21.2 C 10.93 g/m*3 21.2 C 8.1 km/h
295 26-08-2020 00:30:00 21.3 C 11.18 g/m*3 21.3 C 6.4 km/h
296 26-08-2020 00:35:00 21.3 C 11 g/m*3 21.3 C 4.8 km/h
297 26-08-2020 00:40:00 21.3 C 11.37 g/m*3 21.3 C 6.4 km/h
298 26-08-2020 00:45:00 21.3 C 11.18 g/m*3 21.3 C 3.2 km/h
299 26-08-2020 00:50:00 21.2 C 11.3 g/m*3 21.2 C 4.8 km/h
300 26-08-2020 00:55:00 21.2 C 11.68 g/m*3 21.2 C 3.2 km/h
Sensor: Nr:Datum:Temp:Abs-Feuchte:Windchill:Wind:
Aussen-T/F 301 26-08-2020 01:00:00 21.1 C 11.61 g/m*3 21.1 C 4.8 km/h
302 26-08-2020 01:05:00 21 C 11.54 g/m*3 21 C 3.2 km/h
303 26-08-2020 01:10:00 21 C 11.54 g/m*3 21 C 6.4 km/h
304 26-08-2020 01:15:00 21.1 C 11.61 g/m*3 21.1 C 11.3 km/h
305 26-08-2020 01:20:00 21.2 C 11.68 g/m*3 21.2 C 3.2 km/h
306 26-08-2020 01:25:00 21.3 C 11.74 g/m*3 21.3 C 3.2 km/h
307 26-08-2020 01:30:00 21.3 C 11.93 g/m*3 21.3 C 3.2 km/h
308 26-08-2020 01:35:00 21.2 C 11.86 g/m*3 21.2 C 11.3 km/h
309 26-08-2020 01:40:00 21.4 C 12.19 g/m*3 21.4 C 12.9 km/h
310 26-08-2020 01:45:00 21.8 C 12.28 g/m*3 21.8 C 14.5 km/h
311 26-08-2020 01:50:00 22.2 C 12.57 g/m*3 22.2 C 16.1 km/h
312 26-08-2020 01:55:00 22.3 C 12.44 g/m*3 22.3 C 8.1 km/h
313 26-08-2020 02:00:00 22.4 C 12.51 g/m*3 22.4 C 11.3 km/h
314 26-08-2020 02:05:00 22.5 C 12.58 g/m*3 22.5 C 9.7 km/h
315 26-08-2020 02:10:00 22.5 C 12.58 g/m*3 22.5 C 19.3 km/h
316 26-08-2020 02:15:00 22.6 C 12.66 g/m*3 22.6 C 19.3 km/h
317 26-08-2020 02:20:00 22.5 C 12.58 g/m*3 22.5 C 8.1 km/h
318 26-08-2020 02:25:00 22.5 C 12.58 g/m*3 22.5 C 12.9 km/h
319 26-08-2020 02:30:00 22.6 C 12.66 g/m*3 22.6 C 11.3 km/h
320 26-08-2020 02:35:00 22.6 C 12.46 g/m*3 22.6 C 14.5 km/h
321 26-08-2020 02:40:00 22.4 C 12.31 g/m*3 22.4 C 9.7 km/h
322 26-08-2020 02:45:00 22.4 C 12.51 g/m*3 22.4 C 27.4 km/h
323 26-08-2020 02:50:00 22.4 C 12.51 g/m*3 22.4 C 29 km/h
324 26-08-2020 02:55:00 22.5 C 12.58 g/m*3 22.5 C 29 km/h
325 26-08-2020 03:00:00 22.4 C 12.51 g/m*3 22.4 C 25.7 km/h
Sensor: Nr:Datum:Temp:Abs-Feuchte:Windchill:Wind:
Aussen-T/F 326 26-08-2020 03:05:00 22.3 C 12.44 g/m*3 22.3 C 22.5 km/h
327 26-08-2020 03:10:00 22.3 C 12.44 g/m*3 22.3 C 25.7 km/h
328 26-08-2020 03:15:00 22.2 C 12.37 g/m*3 22.2 C 27.4 km/h
329 26-08-2020 03:20:00 22.1 C 12.49 g/m*3 22.1 C 27.4 km/h
330 26-08-2020 03:25:00 21.9 C 12.35 g/m*3 21.9 C 17.7 km/h
331 26-08-2020 03:30:00 21.8 C 12.28 g/m*3 21.8 C 20.9 km/h
332 26-08-2020 03:35:00 21.7 C 12.21 g/m*3 21.7 C 24.1 km/h
333 26-08-2020 03:40:00 21.6 C 11.76 g/m*3 21.6 C 35.4 km/h
334 26-08-2020 03:45:00 21.5 C 11.69 g/m*3 21.5 C 20.9 km/h
335 26-08-2020 03:50:00 21.3 C 11.74 g/m*3 21.3 C 17.7 km/h
336 26-08-2020 03:55:00 21.2 C 11.86 g/m*3 21.2 C 14.5 km/h
337 26-08-2020 04:00:00 21 C 11.72 g/m*3 21 C 19.3 km/h
338 26-08-2020 04:05:00 20.9 C 11.47 g/m*3 20.9 C 20.9 km/h
339 26-08-2020 04:10:00 20.8 C 11.41 g/m*3 20.8 C 19.3 km/h
340 26-08-2020 04:15:00 20.7 C 11.34 g/m*3 20.7 C 25.7 km/h
341 26-08-2020 04:20:00 20.7 C 11.16 g/m*3 20.7 C 20.9 km/h
342 26-08-2020 04:25:00 20.6 C 11.1 g/m*3 20.6 C 25.7 km/h
343 26-08-2020 04:30:00 20.5 C 11.03 g/m*3 20.5 C 16.1 km/h
344 26-08-2020 04:35:00 20.4 C 11.14 g/m*3 20.4 C 16.1 km/h
345 26-08-2020 04:40:00 20.3 C 10.73 g/m*3 20.3 C 25.7 km/h
346 26-08-2020 04:45:00 20.4 C 10.61 g/m*3 20.4 C 24.1 km/h
347 26-08-2020 04:50:00 20.4 C 10.44 g/m*3 20.4 C 20.9 km/h
348 26-08-2020 04:55:00 20.4 C 10.26 g/m*3 20.4 C 25.7 km/h
349 26-08-2020 05:00:00 20.3 C 10.2 g/m*3 20.3 C 25.7 km/h
350 26-08-2020 05:05:00 20.3 C 10.38 g/m*3 20.3 C 12.9 km/h
Sensor: Nr:Datum:Temp:Abs-Feuchte:Windchill:Wind:
Aussen-T/F 351 26-08-2020 05:10:00 20.2 C 10.32 g/m*3 20.2 C 16.1 km/h
352 26-08-2020 05:15:00 20.2 C 10.32 g/m*3 20.2 C 19.3 km/h
353 26-08-2020 05:20:00 20.2 C 10.32 g/m*3 20.2 C 22.5 km/h
354 26-08-2020 05:25:00 20.1 C 10.08 g/m*3 20.1 C 24.1 km/h
355 26-08-2020 05:30:00 20.1 C 10.08 g/m*3 20.1 C 20.9 km/h
356 26-08-2020 05:35:00 20.1 C 10.26 g/m*3 20.1 C 20.9 km/h
357 26-08-2020 05:40:00 19.9 C 9.79 g/m*3 19.9 C 27.4 km/h
358 26-08-2020 05:45:00 19.9 C 9.79 g/m*3 19.9 C 37 km/h
359 26-08-2020 05:50:00 19.8 C 9.74 g/m*3 19.8 C 22.5 km/h
360 26-08-2020 05:55:00 19.8 C 9.91 g/m*3 19.8 C 20.9 km/h
361 26-08-2020 06:00:00 19.8 C 9.74 g/m*3 19.8 C 25.7 km/h
362 26-08-2020 06:05:00 19.7 C 9.85 g/m*3 19.7 C 19.3 km/h
363 26-08-2020 06:10:00 19.7 C 9.68 g/m*3 19.7 C 25.7 km/h
364 26-08-2020 06:15:00 19.7 C 9.68 g/m*3 19.7 C 24.1 km/h
365 26-08-2020 06:20:00 19.7 C 9.51 g/m*3 19.7 C 35.4 km/h
366 26-08-2020 06:25:00 19.7 C 9.68 g/m*3 19.7 C 25.7 km/h
367 26-08-2020 06:30:00 19.6 C 9.62 g/m*3 19.6 C 24.1 km/h
368 26-08-2020 06:35:00 19.6 C 9.79 g/m*3 19.6 C 19.3 km/h
369 26-08-2020 06:40:00 19.5 C 9.73 g/m*3 19.5 C 16.1 km/h
370 26-08-2020 06:45:00 19.4 C 9.84 g/m*3 19.4 C 16.1 km/h
371 26-08-2020 06:50:00 19.3 C 9.79 g/m*3 19.3 C 12.9 km/h
372 26-08-2020 06:55:00 19.3 C 9.95 g/m*3 19.3 C 14.5 km/h
373 26-08-2020 07:00:00 19.3 C 9.95 g/m*3 19.3 C 17.7 km/h
374 26-08-2020 07:05:00 19.2 C 9.89 g/m*3 19.2 C 19.3 km/h
375 26-08-2020 07:10:00 19.2 C 9.56 g/m*3 19.2 C 24.1 km/h
Sensor: Nr:Datum:Temp:Abs-Feuchte:Windchill:Wind:
Aussen-T/F 376 26-08-2020 07:15:00 19.2 C 9.56 g/m*3 19.2 C 17.7 km/h
377 26-08-2020 07:20:00 19.2 C 9.4 g/m*3 19.2 C 19.3 km/h
378 26-08-2020 07:25:00 19.2 C 9.4 g/m*3 19.2 C 27.4 km/h
379 26-08-2020 07:30:00 19.3 C 9.45 g/m*3 19.3 C 22.5 km/h
380 26-08-2020 07:35:00 19.2 C 9.56 g/m*3 19.2 C 20.9 km/h
381 26-08-2020 07:40:00 19.2 C 9.56 g/m*3 19.2 C 19.3 km/h
382 26-08-2020 07:45:00 19.2 C 9.56 g/m*3 19.2 C 22.5 km/h
383 26-08-2020 07:50:00 19.3 C 9.79 g/m*3 19.3 C 14.5 km/h
384 26-08-2020 07:55:00 19.2 C 9.56 g/m*3 19.2 C 20.9 km/h
385 26-08-2020 08:00:00 19.2 C 9.73 g/m*3 19.2 C 17.7 km/h
386 26-08-2020 08:05:00 19.2 C 9.56 g/m*3 19.2 C 19.3 km/h
387 26-08-2020 08:10:00 19.3 C 9.79 g/m*3 19.3 C 20.9 km/h
388 26-08-2020 08:15:00 19.2 C 9.73 g/m*3 19.2 C 19.3 km/h
389 26-08-2020 08:20:00 19.3 C 9.95 g/m*3 19.3 C 9.7 km/h
390 26-08-2020 08:25:00 19.3 C 9.79 g/m*3 19.3 C 19.3 km/h
391 26-08-2020 08:30:00 19.3 C 9.62 g/m*3 19.3 C 20.9 km/h
392 26-08-2020 08:35:00 19.3 C 9.79 g/m*3 19.3 C 16.1 km/h
393 26-08-2020 08:40:00 19.3 C 9.79 g/m*3 19.3 C 29 km/h
394 26-08-2020 08:45:00 19.4 C 9.84 g/m*3 19.4 C 20.9 km/h
395 26-08-2020 08:50:00 19.4 C 9.84 g/m*3 19.4 C 17.7 km/h
396 26-08-2020 08:55:00 19.4 C 9.84 g/m*3 19.4 C 22.5 km/h
397 26-08-2020 09:00:00 19.4 C 9.84 g/m*3 19.4 C 22.5 km/h
398 26-08-2020 09:05:00 19.4 C 10.01 g/m*3 19.4 C 14.5 km/h
399 26-08-2020 09:10:00 19.3 C 9.95 g/m*3 19.3 C 12.9 km/h
400 26-08-2020 09:15:00 19.3 C 9.95 g/m*3 19.3 C 16.1 km/h
Sensor: Nr:Datum:Temp:Abs-Feuchte:Windchill:Wind:
Aussen-T/F 401 26-08-2020 09:20:00 19.3 C 9.95 g/m*3 19.3 C 19.3 km/h
402 26-08-2020 09:25:00 19.4 C 10.01 g/m*3 19.4 C 22.5 km/h
403 26-08-2020 09:30:00 19.5 C 9.9 g/m*3 19.5 C 27.4 km/h
404 26-08-2020 09:35:00 19.5 C 10.07 g/m*3 19.5 C 14.5 km/h
405 26-08-2020 09:40:00 19.6 C 10.13 g/m*3 19.6 C 12.9 km/h
406 26-08-2020 09:45:00 19.5 C 10.07 g/m*3 19.5 C 19.3 km/h
407 26-08-2020 09:50:00 19.4 C 10.01 g/m*3 19.4 C 19.3 km/h
408 26-08-2020 09:55:00 19.4 C 10.01 g/m*3 19.4 C 17.7 km/h
409 26-08-2020 10:00:00 19.5 C 10.07 g/m*3 19.5 C 16.1 km/h
410 26-08-2020 10:05:00 19.5 C 10.07 g/m*3 19.5 C 19.3 km/h
411 26-08-2020 10:10:00 19.5 C 10.07 g/m*3 19.5 C 17.7 km/h
412 26-08-2020 10:15:00 19.6 C 10.13 g/m*3 19.6 C 14.5 km/h
413 26-08-2020 10:20:00 19.6 C 10.3 g/m*3 19.6 C 17.7 km/h
414 26-08-2020 10:25:00 19.6 C 10.13 g/m*3 19.6 C 12.9 km/h
415 26-08-2020 10:30:00 19.6 C 10.13 g/m*3 19.6 C 14.5 km/h
416 26-08-2020 10:35:00 19.6 C 10.13 g/m*3 19.6 C 17.7 km/h
417 26-08-2020 10:40:00 19.6 C 10.3 g/m*3 19.6 C 17.7 km/h
418 26-08-2020 10:45:00 19.5 C 10.07 g/m*3 19.5 C 20.9 km/h
419 26-08-2020 10:50:00 19.5 C 10.24 g/m*3 19.5 C 24.1 km/h
420 26-08-2020 10:55:00 19.5 C 10.07 g/m*3 19.5 C 20.9 km/h
421 26-08-2020 11:00:00 19.5 C 10.24 g/m*3 19.5 C 16.1 km/h
422 26-08-2020 11:05:00 19.4 C 10.01 g/m*3 19.4 C 14.5 km/h
423 26-08-2020 11:10:00 19.4 C 10.01 g/m*3 19.4 C 25.7 km/h
424 26-08-2020 11:15:00 19.5 C 10.07 g/m*3 19.5 C 17.7 km/h
425 26-08-2020 11:20:00 19.5 C 10.07 g/m*3 19.5 C 29 km/h
Sensor: Nr:Datum:Temp:Abs-Feuchte:Windchill:Wind:
Aussen-T/F 426 26-08-2020 11:25:00 19.6 C 10.13 g/m*3 19.6 C 19.3 km/h
427 26-08-2020 11:30:00 19.7 C 10.02 g/m*3 19.7 C 20.9 km/h
428 26-08-2020 11:35:00 19.8 C 10.08 g/m*3 19.8 C 14.5 km/h
429 26-08-2020 11:40:00 20 C 10.2 g/m*3 20 C 17.7 km/h
430 26-08-2020 11:45:00 20.1 C 10.26 g/m*3 20.1 C 20.9 km/h
431 26-08-2020 11:50:00 20.2 C 10.32 g/m*3 20.2 C 20.9 km/h
432 26-08-2020 11:55:00 20.2 C 9.97 g/m*3 20.2 C 27.4 km/h
433 26-08-2020 12:00:00 20.2 C 10.14 g/m*3 20.2 C 19.3 km/h
434 26-08-2020 12:05:00 20.2 C 10.32 g/m*3 20.2 C 22.5 km/h
435 26-08-2020 12:10:00 20.2 C 10.49 g/m*3 20.2 C 20.9 km/h
436 26-08-2020 12:15:00 20.2 C 10.49 g/m*3 20.2 C 19.3 km/h
437 26-08-2020 12:20:00 20.2 C 10.49 g/m*3 20.2 C 19.3 km/h
438 26-08-2020 12:25:00 20.1 C 10.6 g/m*3 20.1 C 30.6 km/h
439 26-08-2020 12:30:00 20 C 10.54 g/m*3 20 C 12.9 km/h
440 26-08-2020 12:35:00 19.9 C 10.65 g/m*3 19.9 C 14.5 km/h
441 26-08-2020 12:40:00 20.1 C 10.78 g/m*3 20.1 C 16.1 km/h
442 26-08-2020 12:45:00 20.1 C 10.78 g/m*3 20.1 C 20.9 km/h
443 26-08-2020 12:50:00 20.2 C 10.67 g/m*3 20.2 C 19.3 km/h
444 26-08-2020 12:55:00 20.2 C 10.84 g/m*3 20.2 C 20.9 km/h
445 26-08-2020 13:00:00 20.2 C 10.84 g/m*3 20.2 C 25.7 km/h
446 26-08-2020 13:05:00 20.4 C 10.97 g/m*3 20.4 C 12.9 km/h
447 26-08-2020 13:10:00 20.7 C 10.98 g/m*3 20.7 C 19.3 km/h
448 26-08-2020 13:15:00 20.8 C 10.86 g/m*3 20.8 C 20.9 km/h
449 26-08-2020 13:20:00 20.8 C 10.86 g/m*3 20.8 C 24.1 km/h
450 26-08-2020 13:25:00 20.7 C 10.8 g/m*3 20.7 C 17.7 km/h
Sensor: Nr:Datum:Temp:Abs-Feuchte:Windchill:Wind:
Aussen-T/F 451 26-08-2020 13:30:00 21 C 10.99 g/m*3 21 C 20.9 km/h
452 26-08-2020 13:35:00 21.3 C 11 g/m*3 21.3 C 29 km/h
453 26-08-2020 13:40:00 21.6 C 10.81 g/m*3 21.6 C 24.1 km/h
454 26-08-2020 13:45:00 21.6 C 10.62 g/m*3 21.6 C 22.5 km/h
455 26-08-2020 13:50:00 21.6 C 10.81 g/m*3 21.6 C 24.1 km/h
456 26-08-2020 13:55:00 21.6 C 10.81 g/m*3 21.6 C 20.9 km/h
457 26-08-2020 14:00:00 21.6 C 10.62 g/m*3 21.6 C 22.5 km/h
458 26-08-2020 14:05:00 21.5 C 10.56 g/m*3 21.5 C 22.5 km/h
459 26-08-2020 14:10:00 21.4 C 10.69 g/m*3 21.4 C 17.7 km/h
460 26-08-2020 14:15:00 21.5 C 10.56 g/m*3 21.5 C 20.9 km/h
461 26-08-2020 14:20:00 21.6 C 10.62 g/m*3 21.6 C 20.9 km/h
462 26-08-2020 14:25:00 21.6 C 10.24 g/m*3 21.6 C 22.5 km/h
463 26-08-2020 14:30:00 21.7 C 10.49 g/m*3 21.7 C 17.7 km/h
464 26-08-2020 14:35:00 21.8 C 10.74 g/m*3 21.8 C 19.3 km/h
465 26-08-2020 14:40:00 21.9 C 10.42 g/m*3 21.9 C 20.9 km/h
466 26-08-2020 14:45:00 21.9 C 10.42 g/m*3 21.9 C 14.5 km/h
467 26-08-2020 14:50:00 21.8 C 10.55 g/m*3 21.8 C 16.1 km/h
468 26-08-2020 14:55:00 21.8 C 10.17 g/m*3 21.8 C 37 km/h
469 26-08-2020 15:00:00 21.8 C 10.17 g/m*3 21.8 C 20.9 km/h
470 26-08-2020 15:05:00 21.9 C 10.23 g/m*3 21.9 C 22.5 km/h
471 26-08-2020 15:10:00 22.1 C 10.54 g/m*3 22.1 C 19.3 km/h
472 26-08-2020 15:15:00 22.2 C 10.41 g/m*3 22.2 C 20.9 km/h
473 26-08-2020 15:20:00 22.1 C 10.35 g/m*3 22.1 C 19.3 km/h
474 26-08-2020 15:25:00 22.2 C 10.41 g/m*3 22.2 C 22.5 km/h
475 26-08-2020 15:30:00 22.5 C 10.39 g/m*3 22.5 C 24.1 km/h
Sensor: Nr:Datum:Temp:Abs-Feuchte:Windchill:Wind:
Aussen-T/F 476 26-08-2020 15:35:00 22.7 C 10.3 g/m*3 22.7 C 22.5 km/h
477 26-08-2020 15:40:00 22.8 C 10.57 g/m*3 22.8 C 22.5 km/h
478 26-08-2020 15:45:00 23.2 C 10.6 g/m*3 23.2 C 20.9 km/h
479 26-08-2020 15:50:00 23.2 C 10.39 g/m*3 23.2 C 16.1 km/h
480 26-08-2020 15:55:00 23.2 C 10.19 g/m*3 23.2 C 22.5 km/h
481 26-08-2020 16:00:00 23 C 10.28 g/m*3 23 C 19.3 km/h
482 26-08-2020 16:05:00 22.8 C 10.36 g/m*3 22.8 C 19.3 km/h
483 26-08-2020 16:10:00 22.8 C 10.16 g/m*3 22.8 C 33.8 km/h
484 26-08-2020 16:15:00 22.8 C 10.16 g/m*3 22.8 C 33.8 km/h
485 26-08-2020 16:20:00 22.9 C 10.22 g/m*3 22.9 C 29 km/h
486 26-08-2020 16:25:00 22.8 C 10.16 g/m*3 22.8 C 35.4 km/h
487 26-08-2020 16:30:00 22.7 C 10.3 g/m*3 22.7 C 30.6 km/h
488 26-08-2020 16:35:00 23 C 10.28 g/m*3 23 C 29 km/h
489 26-08-2020 16:40:00 23.4 C 10.09 g/m*3 23.4 C 24.1 km/h
490 26-08-2020 16:45:00 23.3 C 10.25 g/m*3 23.3 C 27.4 km/h
491 26-08-2020 16:50:00 23.1 C 10.13 g/m*3 23.1 C 24.1 km/h
492 26-08-2020 16:55:00 22.9 C 10.42 g/m*3 22.9 C 17.7 km/h
493 26-08-2020 17:00:00 22.8 C 10.36 g/m*3 22.8 C 16.1 km/h
494 26-08-2020 17:05:00 22.8 C 10.36 g/m*3 22.8 C 20.9 km/h
495 26-08-2020 17:10:00 22.8 C 10.16 g/m*3 22.8 C 19.3 km/h
496 26-08-2020 17:15:00 22.8 C 10.36 g/m*3 22.8 C 17.7 km/h
497 26-08-2020 17:20:00 22.7 C 10.1 g/m*3 22.7 C 24.1 km/h
498 26-08-2020 17:25:00 22.7 C 10.1 g/m*3 22.7 C 22.5 km/h
499 26-08-2020 17:30:00 22.7 C 10.3 g/m*3 22.7 C 20.9 km/h
500 26-08-2020 17:35:00 22.7 C 10.1 g/m*3 22.7 C 17.7 km/h
Sensor: Nr:Datum:Temp:Abs-Feuchte:Windchill:Wind:
Aussen-T/F 501 26-08-2020 17:40:00 22.7 C 10.1 g/m*3 22.7 C 19.3 km/h
502 26-08-2020 17:45:00 22.6 C 10.04 g/m*3 22.6 C 25.7 km/h
503 26-08-2020 17:50:00 22.6 C 10.04 g/m*3 22.6 C 19.3 km/h
504 26-08-2020 17:55:00 22.6 C 10.25 g/m*3 22.6 C 19.3 km/h
505 26-08-2020 18:00:00 22.6 C 10.25 g/m*3 22.6 C 19.3 km/h
506 26-08-2020 18:05:00 22.5 C 10.19 g/m*3 22.5 C 19.3 km/h
507 26-08-2020 18:10:00 22.6 C 10.25 g/m*3 22.6 C 19.3 km/h
508 26-08-2020 18:15:00 22.6 C 10.25 g/m*3 22.6 C 19.3 km/h
509 26-08-2020 18:20:00 22.5 C 9.99 g/m*3 22.5 C 25.7 km/h
510 26-08-2020 18:25:00 22.4 C 10.13 g/m*3 22.4 C 20.9 km/h
511 26-08-2020 18:30:00 22.3 C 10.27 g/m*3 22.3 C 16.1 km/h
512 26-08-2020 18:35:00 22.3 C 10.27 g/m*3 22.3 C 19.3 km/h
513 26-08-2020 18:40:00 22.2 C 10.21 g/m*3 22.2 C 19.3 km/h
514 26-08-2020 18:45:00 22.1 C 10.15 g/m*3 22.1 C 19.3 km/h
515 26-08-2020 18:50:00 22.1 C 10.15 g/m*3 22.1 C 19.3 km/h
516 26-08-2020 18:55:00 22 C 10.09 g/m*3 22 C 16.1 km/h
517 26-08-2020 19:00:00 21.9 C 10.23 g/m*3 21.9 C 17.7 km/h
518 26-08-2020 19:05:00 21.9 C 10.23 g/m*3 21.9 C 16.1 km/h
519 26-08-2020 19:10:00 21.8 C 10.17 g/m*3 21.8 C 16.1 km/h
520 26-08-2020 19:15:00 21.7 C 10.3 g/m*3 21.7 C 14.5 km/h
521 26-08-2020 19:20:00 21.6 C 10.24 g/m*3 21.6 C 17.7 km/h
522 26-08-2020 19:25:00 21.6 C 10.43 g/m*3 21.6 C 12.9 km/h
523 26-08-2020 19:30:00 21.5 C 10.37 g/m*3 21.5 C 16.1 km/h
524 26-08-2020 19:35:00 21.4 C 10.31 g/m*3 21.4 C 12.9 km/h
525 26-08-2020 19:40:00 21.3 C 10.44 g/m*3 21.3 C 11.3 km/h
Sensor: Nr:Datum:Temp:Abs-Feuchte:Windchill:Wind:
Aussen-T/F 526 26-08-2020 19:45:00 21.3 C 10.44 g/m*3 21.3 C 14.5 km/h
527 26-08-2020 19:50:00 21.2 C 10.56 g/m*3 21.2 C 12.9 km/h
528 26-08-2020 19:55:00 21.1 C 10.5 g/m*3 21.1 C 14.5 km/h
529 26-08-2020 20:00:00 21 C 10.62 g/m*3 21 C 14.5 km/h
530 26-08-2020 20:05:00 20.9 C 10.56 g/m*3 20.9 C 19.3 km/h
531 26-08-2020 20:10:00 20.8 C 10.5 g/m*3 20.8 C 19.3 km/h
532 26-08-2020 20:15:00 20.8 C 10.68 g/m*3 20.8 C 22.5 km/h
533 26-08-2020 20:20:00 20.7 C 10.62 g/m*3 20.7 C 17.7 km/h
534 26-08-2020 20:25:00 20.7 C 10.8 g/m*3 20.7 C 11.3 km/h
535 26-08-2020 20:30:00 20.6 C 10.74 g/m*3 20.6 C 9.7 km/h
536 26-08-2020 20:35:00 20.6 C 10.74 g/m*3 20.6 C 12.9 km/h
537 26-08-2020 20:40:00 20.4 C 10.61 g/m*3 20.4 C 11.3 km/h
538 26-08-2020 20:45:00 20.3 C 10.55 g/m*3 20.3 C 19.3 km/h
539 26-08-2020 20:50:00 20.3 C 10.73 g/m*3 20.3 C 17.7 km/h
540 26-08-2020 20:55:00 20.2 C 10.67 g/m*3 20.2 C 16.1 km/h
541 26-08-2020 21:00:00 20.2 C 10.84 g/m*3 20.2 C 12.9 km/h
542 26-08-2020 21:05:00 20.1 C 10.78 g/m*3 20.1 C 22.5 km/h
543 26-08-2020 21:10:00 20 C 10.54 g/m*3 20 C 11.3 km/h
544 26-08-2020 21:15:00 19.9 C 10.48 g/m*3 19.9 C 16.1 km/h
545 26-08-2020 21:20:00 19.9 C 10.48 g/m*3 19.9 C 12.9 km/h
546 26-08-2020 21:25:00 19.9 C 10.48 g/m*3 19.9 C 16.1 km/h
547 26-08-2020 21:30:00 19.9 C 10.48 g/m*3 19.9 C 17.7 km/h
548 26-08-2020 21:35:00 19.9 C 10.48 g/m*3 19.9 C 14.5 km/h
549 26-08-2020 21:40:00 19.9 C 10.65 g/m*3 19.9 C 9.7 km/h
550 26-08-2020 21:45:00 19.9 C 10.65 g/m*3 19.9 C 8.1 km/h
Sensor: Nr:Datum:Temp:Abs-Feuchte:Windchill:Wind:
Aussen-T/F 551 26-08-2020 21:50:00 19.8 C 10.59 g/m*3 19.8 C 12.9 km/h
552 26-08-2020 21:55:00 19.8 C 10.59 g/m*3 19.8 C 11.3 km/h
553 26-08-2020 22:00:00 19.7 C 10.53 g/m*3 19.7 C 11.3 km/h
554 26-08-2020 22:05:00 19.7 C 10.53 g/m*3 19.7 C 11.3 km/h
555 26-08-2020 22:10:00 19.6 C 10.47 g/m*3 19.6 C 11.3 km/h
556 26-08-2020 22:15:00 19.6 C 10.64 g/m*3 19.6 C 8.1 km/h
557 26-08-2020 22:20:00 19.6 C 10.64 g/m*3 19.6 C 0 km/h
558 26-08-2020 22:25:00 19.4 C 10.51 g/m*3 19.4 C 4.8 km/h
559 26-08-2020 22:30:00 19.3 C 10.45 g/m*3 19.3 C 12.9 km/h
560 26-08-2020 22:35:00 19.3 C 10.62 g/m*3 19.3 C 6.4 km/h
561 26-08-2020 22:40:00 19.3 C 10.62 g/m*3 19.3 C 4.8 km/h
562 26-08-2020 22:45:00 19.2 C 10.55 g/m*3 19.2 C 1.6 km/h
563 26-08-2020 22:50:00 19.2 C 10.72 g/m*3 19.2 C 8.1 km/h
564 26-08-2020 22:55:00 19.1 C 10.66 g/m*3 19.1 C 3.2 km/h
565 26-08-2020 23:00:00 19 C 10.59 g/m*3 19 C 4.8 km/h
566 26-08-2020 23:05:00 18.9 C 10.53 g/m*3 18.9 C 3.2 km/h
567 26-08-2020 23:10:00 18.9 C 10.69 g/m*3 18.9 C 0 km/h
568 26-08-2020 23:15:00 18.9 C 10.69 g/m*3 18.9 C 6.4 km/h
569 26-08-2020 23:20:00 18.8 C 10.79 g/m*3 18.8 C 0 km/h
570 26-08-2020 23:25:00 18.8 C 10.79 g/m*3 18.8 C 1.6 km/h
571 26-08-2020 23:30:00 18.7 C 10.73 g/m*3 18.7 C 0 km/h
572 26-08-2020 23:35:00 18.6 C 10.66 g/m*3 18.6 C 3.2 km/h
573 26-08-2020 23:40:00 18.6 C 10.82 g/m*3 18.6 C 3.2 km/h
574 26-08-2020 23:45:00 18.4 C 10.54 g/m*3 18.4 C 3.2 km/h
575 26-08-2020 23:50:00 18.4 C 10.7 g/m*3 18.4 C 0 km/h
Sensor: Nr:Datum:Temp:Abs-Feuchte:Windchill:Wind:
Aussen-T/F 576 26-08-2020 23:55:00 18.3 C 10.63 g/m*3 18.3 C 3.2 km/h
577 27-08-2020 00:00:00 18.3 C 10.63 g/m*3 18.3 C 6.4 km/h
578 27-08-2020 00:05:00 18.3 C 10.79 g/m*3 18.3 C 4.8 km/h
579 27-08-2020 00:10:00 18.3 C 10.79 g/m*3 18.3 C 4.8 km/h
580 27-08-2020 00:15:00 18.2 C 10.57 g/m*3 18.2 C 6.4 km/h
581 27-08-2020 00:20:00 18.2 C 10.72 g/m*3 18.2 C 3.2 km/h
582 27-08-2020 00:25:00 18.1 C 10.66 g/m*3 18.1 C 9.7 km/h
583 27-08-2020 00:30:00 18.1 C 10.66 g/m*3 18.1 C 9.7 km/h
584 27-08-2020 00:35:00 18 C 10.75 g/m*3 18 C 1.6 km/h
585 27-08-2020 00:40:00 17.9 C 10.69 g/m*3 17.9 C 1.6 km/h
586 27-08-2020 00:45:00 17.8 C 10.62 g/m*3 17.8 C 3.2 km/h
587 27-08-2020 00:50:00 17.8 C 10.78 g/m*3 17.8 C 0 km/h
588 27-08-2020 00:55:00 17.7 C 10.71 g/m*3 17.7 C 4.8 km/h
589 27-08-2020 01:00:00 17.7 C 10.71 g/m*3 17.7 C 4.8 km/h
590 27-08-2020 01:05:00 17.7 C 10.71 g/m*3 17.7 C 4.8 km/h
591 27-08-2020 01:10:00 17.7 C 10.86 g/m*3 17.7 C 4.8 km/h
592 27-08-2020 01:15:00 17.6 C 10.8 g/m*3 17.6 C 1.6 km/h
593 27-08-2020 01:20:00 17.6 C 10.8 g/m*3 17.6 C 1.6 km/h
594 27-08-2020 01:25:00 17.5 C 10.73 g/m*3 17.5 C 0 km/h
595 27-08-2020 01:30:00 17.4 C 10.82 g/m*3 17.4 C 1.6 km/h
596 27-08-2020 01:35:00 17.2 C 10.69 g/m*3 17.2 C 1.6 km/h
597 27-08-2020 01:40:00 17.1 C 10.63 g/m*3 17.1 C 0 km/h
598 27-08-2020 01:45:00 16.9 C 10.64 g/m*3 16.9 C 1.6 km/h
599 27-08-2020 01:50:00 16.8 C 10.72 g/m*3 16.8 C 3.2 km/h
600 27-08-2020 01:55:00 16.6 C 10.74 g/m*3 16.6 C 3.2 km/h
Sensor: Nr:Datum:Temp:Abs-Feuchte:Windchill:Wind:
Aussen-T/F 601 27-08-2020 02:00:00 16.4 C 10.61 g/m*3 16.4 C 0 km/h
602 27-08-2020 02:05:00 16.3 C 10.68 g/m*3 16.3 C 1.6 km/h
603 27-08-2020 02:10:00 16.2 C 10.76 g/m*3 16.2 C 0 km/h
604 27-08-2020 02:15:00 16.1 C 10.69 g/m*3 16.1 C 0 km/h
605 27-08-2020 02:20:00 16.1 C 10.83 g/m*3 16.1 C 0 km/h
606 27-08-2020 02:25:00 16.1 C 10.83 g/m*3 16.1 C 1.6 km/h
607 27-08-2020 02:30:00 16.1 C 10.83 g/m*3 16.1 C 3.2 km/h
608 27-08-2020 02:35:00 16.1 C 10.83 g/m*3 16.1 C 4.8 km/h
609 27-08-2020 02:40:00 16.1 C 10.83 g/m*3 16.1 C 4.8 km/h
610 27-08-2020 02:45:00 16.2 C 10.89 g/m*3 16.2 C 6.4 km/h
611 27-08-2020 02:50:00 16.2 C 10.89 g/m*3 16.2 C 3.2 km/h
612 27-08-2020 02:55:00 16.2 C 10.89 g/m*3 16.2 C 3.2 km/h
613 27-08-2020 03:00:00 16.2 C 10.76 g/m*3 16.2 C 1.6 km/h
614 27-08-2020 03:05:00 16.1 C 10.83 g/m*3 16.1 C 4.8 km/h
615 27-08-2020 03:10:00 16 C 10.76 g/m*3 16 C 1.6 km/h
616 27-08-2020 03:15:00 15.9 C 10.7 g/m*3 15.9 C 1.6 km/h
617 27-08-2020 03:20:00 15.7 C 10.57 g/m*3 15.7 C 4.8 km/h
618 27-08-2020 03:25:00 15.6 C 10.64 g/m*3 15.6 C 0 km/h
619 27-08-2020 03:30:00 15.4 C 10.51 g/m*3 15.4 C 3.2 km/h
620 27-08-2020 03:35:00 15.3 C 10.58 g/m*3 15.3 C 1.6 km/h
621 27-08-2020 03:40:00 15.2 C 10.51 g/m*3 15.2 C 0 km/h
622 27-08-2020 03:45:00 15 C 10.51 g/m*3 15 C 0 km/h
623 27-08-2020 03:50:00 14.8 C 10.39 g/m*3 14.8 C 0 km/h
624 27-08-2020 03:55:00 14.7 C 10.32 g/m*3 14.7 C 0 km/h
625 27-08-2020 04:00:00 14.6 C 10.39 g/m*3 14.6 C 1.6 km/h
Sensor: Nr:Datum:Temp:Abs-Feuchte:Windchill:Wind:
Aussen-T/F 626 27-08-2020 04:05:00 14.4 C 10.38 g/m*3 14.4 C 3.2 km/h
627 27-08-2020 04:10:00 14.3 C 10.32 g/m*3 14.3 C 1.6 km/h
628 27-08-2020 04:15:00 14.3 C 10.32 g/m*3 14.3 C 0 km/h
629 27-08-2020 04:20:00 14.2 C 10.38 g/m*3 14.2 C 1.6 km/h
630 27-08-2020 04:25:00 14.1 C 10.32 g/m*3 14.1 C 3.2 km/h
631 27-08-2020 04:30:00 13.9 C 10.31 g/m*3 13.9 C 1.6 km/h
632 27-08-2020 04:35:00 13.9 C 10.31 g/m*3 13.9 C 0 km/h
633 27-08-2020 04:40:00 13.8 C 10.37 g/m*3 13.8 C 1.6 km/h
634 27-08-2020 04:45:00 13.8 C 10.37 g/m*3 13.8 C 0 km/h
635 27-08-2020 04:50:00 13.7 C 10.3 g/m*3 13.7 C 1.6 km/h
636 27-08-2020 04:55:00 13.7 C 10.3 g/m*3 13.7 C 0 km/h
637 27-08-2020 05:00:00 13.6 C 10.24 g/m*3 13.6 C 0 km/h
638 27-08-2020 05:05:00 13.6 C 10.24 g/m*3 13.6 C 0 km/h
639 27-08-2020 05:10:00 13.4 C 10.11 g/m*3 13.4 C 0 km/h
640 27-08-2020 05:15:00 13.3 C 10.17 g/m*3 13.3 C 0 km/h
641 27-08-2020 05:20:00 13.2 C 10.1 g/m*3 13.2 C 0 km/h
642 27-08-2020 05:25:00 13.2 C 10.1 g/m*3 13.2 C 0 km/h
643 27-08-2020 05:30:00 13.1 C 10.16 g/m*3 13.1 C 0 km/h
644 27-08-2020 05:35:00 13.1 C 10.16 g/m*3 13.1 C 0 km/h
645 27-08-2020 05:40:00 13.1 C 10.16 g/m*3 13.1 C 0 km/h
646 27-08-2020 05:45:00 13.1 C 10.27 g/m*3 13.1 C 0 km/h
647 27-08-2020 05:50:00 13.1 C 10.16 g/m*3 13.1 C 0 km/h
648 27-08-2020 05:55:00 13 C 10.09 g/m*3 13 C 0 km/h
649 27-08-2020 06:00:00 12.9 C 10.03 g/m*3 12.9 C 0 km/h
650 27-08-2020 06:05:00 12.9 C 10.14 g/m*3 12.9 C 0 km/h
Sensor: Nr:Datum:Temp:Abs-Feuchte:Windchill:Wind:
Aussen-T/F 651 27-08-2020 06:10:00 12.8 C 10.08 g/m*3 12.8 C 0 km/h
652 27-08-2020 06:15:00 12.8 C 10.08 g/m*3 12.8 C 0 km/h
653 27-08-2020 06:20:00 12.8 C 10.08 g/m*3 12.8 C 0 km/h
654 27-08-2020 06:25:00 12.8 C 10.08 g/m*3 12.8 C 0 km/h
655 27-08-2020 06:30:00 12.8 C 10.08 g/m*3 12.8 C 1.6 km/h
656 27-08-2020 06:35:00 12.8 C 10.19 g/m*3 12.8 C 1.6 km/h
657 27-08-2020 06:40:00 12.8 C 10.19 g/m*3 12.8 C 4.8 km/h
658 27-08-2020 06:45:00 12.8 C 10.19 g/m*3 12.8 C 1.6 km/h
659 27-08-2020 06:50:00 12.8 C 10.19 g/m*3 12.8 C 1.6 km/h
660 27-08-2020 06:55:00 12.7 C 10.02 g/m*3 12.7 C 0 km/h
661 27-08-2020 07:00:00 12.7 C 10.02 g/m*3 12.7 C 1.6 km/h
662 27-08-2020 07:05:00 12.6 C 10.07 g/m*3 12.6 C 3.2 km/h
663 27-08-2020 07:10:00 12.6 C 10.07 g/m*3 12.6 C 3.2 km/h
664 27-08-2020 07:15:00 12.6 C 10.07 g/m*3 12.6 C 1.6 km/h
665 27-08-2020 07:20:00 12.7 C 10.24 g/m*3 12.7 C 4.8 km/h
666 27-08-2020 07:25:00 12.7 C 10.24 g/m*3 12.7 C 9.7 km/h
667 27-08-2020 07:30:00 12.8 C 10.19 g/m*3 12.8 C 4.8 km/h
668 27-08-2020 07:35:00 12.8 C 10.19 g/m*3 12.8 C 4.8 km/h
669 27-08-2020 07:40:00 12.9 C 10.26 g/m*3 12.9 C 1.6 km/h
670 27-08-2020 07:45:00 12.9 C 10.26 g/m*3 12.9 C 4.8 km/h
671 27-08-2020 07:50:00 12.9 C 10.26 g/m*3 12.9 C 3.2 km/h
672 27-08-2020 07:55:00 13 C 10.32 g/m*3 13 C 1.6 km/h
673 27-08-2020 08:00:00 13 C 10.32 g/m*3 13 C 0 km/h
674 27-08-2020 08:05:00 13.1 C 10.38 g/m*3 13.1 C 0 km/h
675 27-08-2020 08:10:00 13.1 C 10.38 g/m*3 13.1 C 1.6 km/h
Sensor: Nr:Datum:Temp:Abs-Feuchte:Windchill:Wind:
Aussen-T/F 676 27-08-2020 08:15:00 13.2 C 10.45 g/m*3 13.2 C 1.6 km/h
677 27-08-2020 08:20:00 13.2 C 10.45 g/m*3 13.2 C 3.2 km/h
678 27-08-2020 08:25:00 13.4 C 10.58 g/m*3 13.4 C 8.1 km/h
679 27-08-2020 08:30:00 13.7 C 10.66 g/m*3 13.7 C 8.1 km/h
680 27-08-2020 08:35:00 13.9 C 10.55 g/m*3 13.9 C 9.7 km/h
681 27-08-2020 08:40:00 14.1 C 10.68 g/m*3 14.1 C 1.6 km/h
682 27-08-2020 08:45:00 14.3 C 10.81 g/m*3 14.3 C 4.8 km/h
683 27-08-2020 08:50:00 14.5 C 10.82 g/m*3 14.5 C 6.4 km/h
684 27-08-2020 08:55:00 14.8 C 10.89 g/m*3 14.8 C 8.1 km/h
685 27-08-2020 09:00:00 14.9 C 10.83 g/m*3 14.9 C 8.1 km/h
686 27-08-2020 09:05:00 15.2 C 11.03 g/m*3 15.2 C 8.1 km/h
687 27-08-2020 09:10:00 15.4 C 11.04 g/m*3 15.4 C 8.1 km/h
688 27-08-2020 09:15:00 15.6 C 11.04 g/m*3 15.6 C 9.7 km/h
689 27-08-2020 09:20:00 15.8 C 11.04 g/m*3 15.8 C 9.7 km/h
690 27-08-2020 09:25:00 15.9 C 10.97 g/m*3 15.9 C 9.7 km/h
691 27-08-2020 09:30:00 16.1 C 11.1 g/m*3 16.1 C 8.1 km/h
692 27-08-2020 09:35:00 16.3 C 11.24 g/m*3 16.3 C 11.3 km/h
693 27-08-2020 09:40:00 16.4 C 11.17 g/m*3 16.4 C 9.7 km/h
694 27-08-2020 09:45:00 16.6 C 11.16 g/m*3 16.6 C 11.3 km/h
695 27-08-2020 09:50:00 16.7 C 11.23 g/m*3 16.7 C 11.3 km/h
696 27-08-2020 09:55:00 16.8 C 11.15 g/m*3 16.8 C 9.7 km/h
697 27-08-2020 10:00:00 16.8 C 11.15 g/m*3 16.8 C 9.7 km/h
698 27-08-2020 10:05:00 16.8 C 11.15 g/m*3 16.8 C 8.1 km/h
699 27-08-2020 10:10:00 16.7 C 11.23 g/m*3 16.7 C 8.1 km/h
700 27-08-2020 10:15:00 16.8 C 11.29 g/m*3 16.8 C 6.4 km/h
Sensor: Nr:Datum:Temp:Abs-Feuchte:Windchill:Wind:
Aussen-T/F 701 27-08-2020 10:20:00 16.8 C 11.29 g/m*3 16.8 C 6.4 km/h
702 27-08-2020 10:25:00 17 C 11.29 g/m*3 17 C 6.4 km/h
703 27-08-2020 10:30:00 17.2 C 11.28 g/m*3 17.2 C 8.1 km/h
704 27-08-2020 10:35:00 17.3 C 11.34 g/m*3 17.3 C 6.4 km/h
705 27-08-2020 10:40:00 17.4 C 11.41 g/m*3 17.4 C 4.8 km/h
706 27-08-2020 10:45:00 17.7 C 11.47 g/m*3 17.7 C 4.8 km/h
707 27-08-2020 10:50:00 17.9 C 11.45 g/m*3 17.9 C 4.8 km/h
708 27-08-2020 10:55:00 18.1 C 11.74 g/m*3 18.1 C 1.6 km/h
709 27-08-2020 11:00:00 18.3 C 11.57 g/m*3 18.3 C 3.2 km/h
710 27-08-2020 11:05:00 18.6 C 11.78 g/m*3 18.6 C 4.8 km/h
711 27-08-2020 11:10:00 18.7 C 11.37 g/m*3 18.7 C 8.1 km/h
712 27-08-2020 11:15:00 18.8 C 11.6 g/m*3 18.8 C 6.4 km/h
713 27-08-2020 11:20:00 18.9 C 11.5 g/m*3 18.9 C 8.1 km/h
714 27-08-2020 11:25:00 19 C 11.41 g/m*3 19 C 9.7 km/h
715 27-08-2020 11:30:00 19 C 11.41 g/m*3 19 C 9.7 km/h
716 27-08-2020 11:35:00 19 C 11.24 g/m*3 19 C 6.4 km/h
717 27-08-2020 11:40:00 19.1 C 11.47 g/m*3 19.1 C 6.4 km/h
718 27-08-2020 11:45:00 19.1 C 11.31 g/m*3 19.1 C 8.1 km/h
719 27-08-2020 11:50:00 19.1 C 11.31 g/m*3 19.1 C 6.4 km/h
720 27-08-2020 11:55:00 19.2 C 11.21 g/m*3 19.2 C 1.6 km/h
721 27-08-2020 12:00:00 19.3 C 11.28 g/m*3 19.3 C 9.7 km/h
722 27-08-2020 12:05:00 19.3 C 11.44 g/m*3 19.3 C 4.8 km/h
723 27-08-2020 12:10:00 19.4 C 11.18 g/m*3 19.4 C 6.4 km/h
724 27-08-2020 12:15:00 19.4 C 11.01 g/m*3 19.4 C 3.2 km/h
725 27-08-2020 12:20:00 19.4 C 11.01 g/m*3 19.4 C 1.6 km/h
Sensor: Nr:Datum:Temp:Abs-Feuchte:Windchill:Wind:
Aussen-T/F 726 27-08-2020 12:25:00 19.5 C 10.91 g/m*3 19.5 C 4.8 km/h
727 27-08-2020 12:30:00 19.5 C 10.91 g/m*3 19.5 C 6.4 km/h
728 27-08-2020 12:35:00 19.6 C 10.8 g/m*3 19.6 C 11.3 km/h
729 27-08-2020 12:40:00 19.5 C 10.91 g/m*3 19.5 C 4.8 km/h
730 27-08-2020 12:45:00 19.6 C 10.8 g/m*3 19.6 C 0 km/h
731 27-08-2020 12:50:00 19.7 C 11.04 g/m*3 19.7 C 6.4 km/h
732 27-08-2020 12:55:00 19.8 C 10.93 g/m*3 19.8 C 3.2 km/h
733 27-08-2020 13:00:00 19.8 C 11.1 g/m*3 19.8 C 3.2 km/h
734 27-08-2020 13:05:00 19.9 C 10.82 g/m*3 19.9 C 11.3 km/h
735 27-08-2020 13:10:00 20 C 10.89 g/m*3 20 C 8.1 km/h
736 27-08-2020 13:15:00 20.1 C 10.95 g/m*3 20.1 C 12.9 km/h
737 27-08-2020 13:20:00 20 C 10.71 g/m*3 20 C 6.4 km/h
738 27-08-2020 13:25:00 19.9 C 11 g/m*3 19.9 C 8.1 km/h
739 27-08-2020 13:30:00 20.1 C 10.78 g/m*3 20.1 C 16.1 km/h
740 27-08-2020 13:35:00 20.2 C 10.84 g/m*3 20.2 C 11.3 km/h
741 27-08-2020 13:40:00 20.3 C 10.73 g/m*3 20.3 C 11.3 km/h
742 27-08-2020 13:45:00 20.3 C 10.9 g/m*3 20.3 C 8.1 km/h
743 27-08-2020 13:50:00 20.4 C 10.79 g/m*3 20.4 C 8.1 km/h
744 27-08-2020 13:55:00 20.5 C 10.68 g/m*3 20.5 C 6.4 km/h
745 27-08-2020 14:00:00 20.7 C 10.98 g/m*3 20.7 C 12.9 km/h
746 27-08-2020 14:05:00 20.9 C 10.56 g/m*3 20.9 C 9.7 km/h
747 27-08-2020 14:10:00 21.2 C 10.75 g/m*3 21.2 C 8.1 km/h
748 27-08-2020 14:15:00 21.3 C 10.81 g/m*3 21.3 C 12.9 km/h
749 27-08-2020 14:20:00 21.3 C 10.62 g/m*3 21.3 C 4.8 km/h
750 27-08-2020 14:25:00 21.4 C 10.69 g/m*3 21.4 C 9.7 km/h
Sensor: Nr:Datum:Temp:Abs-Feuchte:Windchill:Wind:
Aussen-T/F 751 27-08-2020 14:30:00 21.6 C 10.81 g/m*3 21.6 C 8.1 km/h
752 27-08-2020 14:35:00 21.5 C 10.56 g/m*3 21.5 C 9.7 km/h
753 27-08-2020 14:40:00 21.5 C 10.56 g/m*3 21.5 C 4.8 km/h
754 27-08-2020 14:45:00 21.5 C 10.37 g/m*3 21.5 C 6.4 km/h
755 27-08-2020 14:50:00 21.4 C 10.5 g/m*3 21.4 C 0 km/h
756 27-08-2020 14:55:00 21.4 C 10.5 g/m*3 21.4 C 0 km/h
757 27-08-2020 15:00:00 21.7 C 10.68 g/m*3 21.7 C 9.7 km/h
758 27-08-2020 15:05:00 22.1 C 10.54 g/m*3 22.1 C 6.4 km/h
759 27-08-2020 15:10:00 22.3 C 10.27 g/m*3 22.3 C 11.3 km/h
760 27-08-2020 15:15:00 22.4 C 10.33 g/m*3 22.4 C 22.5 km/h
761 27-08-2020 15:20:00 22.6 C 10.04 g/m*3 22.6 C 11.3 km/h
762 27-08-2020 15:25:00 22.6 C 10.04 g/m*3 22.6 C 11.3 km/h
763 27-08-2020 15:30:00 22.6 C 10.25 g/m*3 22.6 C 8.1 km/h
764 27-08-2020 15:35:00 22.6 C 10.25 g/m*3 22.6 C 9.7 km/h
765 27-08-2020 15:40:00 22.8 C 10.36 g/m*3 22.8 C 9.7 km/h
766 27-08-2020 15:45:00 23 C 10.28 g/m*3 23 C 11.3 km/h
767 27-08-2020 15:50:00 23.1 C 10.13 g/m*3 23.1 C 14.5 km/h
768 27-08-2020 15:55:00 23.3 C 10.25 g/m*3 23.3 C 8.1 km/h
769 27-08-2020 16:00:00 23.5 C 10.15 g/m*3 23.5 C 8.1 km/h
770 27-08-2020 16:05:00 23.7 C 10.27 g/m*3 23.7 C 9.7 km/h
771 27-08-2020 16:10:00 24 C 10.01 g/m*3 24 C 12.9 km/h
772 27-08-2020 16:15:00 24.2 C 10.12 g/m*3 24.2 C 16.1 km/h
773 27-08-2020 16:20:00 24.2 C 10.34 g/m*3 24.2 C 9.7 km/h
774 27-08-2020 16:25:00 24.2 C 10.12 g/m*3 24.2 C 9.7 km/h
775 27-08-2020 16:30:00 24.3 C 10.18 g/m*3 24.3 C 4.8 km/h
Sensor: Nr:Datum:Temp:Abs-Feuchte:Windchill:Wind:
Aussen-T/F 776 27-08-2020 16:35:00 24.7 C 10.64 g/m*3 24.7 C 4.8 km/h
777 27-08-2020 16:40:00 25.1 C 10.19 g/m*3 25.1 C 9.7 km/h
778 27-08-2020 16:45:00 25.2 C 10.24 g/m*3 25.2 C 16.1 km/h
779 27-08-2020 16:50:00 25.3 C 10.3 g/m*3 25.3 C 11.3 km/h
780 27-08-2020 16:55:00 25.3 C 10.3 g/m*3 25.3 C 12.9 km/h
781 27-08-2020 17:00:00 25.4 C 10.12 g/m*3 25.4 C 11.3 km/h
782 27-08-2020 17:05:00 25.4 C 10.12 g/m*3 25.4 C 9.7 km/h
783 27-08-2020 17:10:00 25.4 C 10.12 g/m*3 25.4 C 11.3 km/h
784 27-08-2020 17:15:00 25.3 C 9.83 g/m*3 25.3 C 12.9 km/h
785 27-08-2020 17:20:00 25.4 C 10.12 g/m*3 25.4 C 8.1 km/h
786 27-08-2020 17:25:00 25.6 C 9.76 g/m*3 25.6 C 9.7 km/h
787 27-08-2020 17:30:00 25.5 C 9.94 g/m*3 25.5 C 14.5 km/h
788 27-08-2020 17:35:00 25.4 C 10.12 g/m*3 25.4 C 8.1 km/h
789 27-08-2020 17:40:00 25.7 C 9.82 g/m*3 25.7 C 9.7 km/h
790 27-08-2020 17:45:00 25.8 C 9.87 g/m*3 25.8 C 9.7 km/h
791 27-08-2020 17:50:00 25.7 C 9.82 g/m*3 25.7 C 12.9 km/h
792 27-08-2020 17:55:00 25.6 C 9.76 g/m*3 25.6 C 12.9 km/h
793 27-08-2020 18:00:00 25.7 C 9.82 g/m*3 25.7 C 9.7 km/h
794 27-08-2020 18:05:00 26 C 9.98 g/m*3 26 C 9.7 km/h
795 27-08-2020 18:10:00 26.1 C 9.55 g/m*3 26.1 C 11.3 km/h
796 27-08-2020 18:15:00 25.9 C 9.68 g/m*3 25.9 C 9.7 km/h
797 27-08-2020 18:20:00 26 C 9.49 g/m*3 26 C 9.7 km/h
798 27-08-2020 18:25:00 25.9 C 9.44 g/m*3 25.9 C 9.7 km/h
799 27-08-2020 18:30:00 25.8 C 9.63 g/m*3 25.8 C 6.4 km/h
800 27-08-2020 18:35:00 25.8 C 9.63 g/m*3 25.8 C 16.1 km/h
Sensor: Nr:Datum:Temp:Abs-Feuchte:Windchill:Wind:
Aussen-T/F 801 27-08-2020 18:40:00 25.8 C 9.63 g/m*3 25.8 C 4.8 km/h
802 27-08-2020 18:45:00 25.8 C 9.39 g/m*3 25.8 C 8.1 km/h
803 27-08-2020 18:50:00 25.7 C 9.58 g/m*3 25.7 C 9.7 km/h
804 27-08-2020 18:55:00 25.5 C 9.94 g/m*3 25.5 C 12.9 km/h
805 27-08-2020 19:00:00 25.5 C 9.71 g/m*3 25.5 C 8.1 km/h
806 27-08-2020 19:05:00 25.5 C 10.18 g/m*3 25.5 C 4.8 km/h
807 27-08-2020 19:10:00 25.4 C 9.65 g/m*3 25.4 C 4.8 km/h
808 27-08-2020 19:15:00 25.1 C 9.72 g/m*3 25.1 C 9.7 km/h
809 27-08-2020 19:20:00 24.8 C 9.79 g/m*3 24.8 C 6.4 km/h
810 27-08-2020 19:25:00 24.6 C 10.13 g/m*3 24.6 C 6.4 km/h
811 27-08-2020 19:30:00 24.3 C 11.06 g/m*3 24.3 C 0 km/h
812 27-08-2020 19:35:00 24.1 C 10.5 g/m*3 24.1 C 1.6 km/h
813 27-08-2020 19:40:00 23.8 C 10.97 g/m*3 23.8 C 3.2 km/h
814 27-08-2020 19:45:00 23.7 C 10.69 g/m*3 23.7 C 3.2 km/h
815 27-08-2020 19:50:00 23.4 C 10.72 g/m*3 23.4 C 0 km/h
816 27-08-2020 19:55:00 22.9 C 10.42 g/m*3 22.9 C 1.6 km/h
817 27-08-2020 20:00:00 22.4 C 10.53 g/m*3 22.4 C 0 km/h
818 27-08-2020 20:05:00 21.8 C 10.55 g/m*3 21.8 C 6.4 km/h
819 27-08-2020 20:10:00 21.2 C 10.38 g/m*3 21.2 C 4.8 km/h
820 27-08-2020 20:15:00 20.6 C 10.2 g/m*3 20.6 C 4.8 km/h
821 27-08-2020 20:20:00 20.2 C 10.14 g/m*3 20.2 C 6.4 km/h
822 27-08-2020 20:25:00 19.8 C 10.08 g/m*3 19.8 C 6.4 km/h
823 27-08-2020 20:30:00 19.4 C 10.18 g/m*3 19.4 C 3.2 km/h
824 27-08-2020 20:35:00 19.1 C 10.16 g/m*3 19.1 C 1.6 km/h
825 27-08-2020 20:40:00 18.8 C 9.99 g/m*3 18.8 C 0 km/h
Sensor: Nr:Datum:Temp:Abs-Feuchte:Windchill:Wind:
Aussen-T/F 826 27-08-2020 20:45:00 18.6 C 10.03 g/m*3 18.6 C 0 km/h
827 27-08-2020 20:50:00 18.3 C 9.85 g/m*3 18.3 C 6.4 km/h
828 27-08-2020 20:55:00 18.2 C 9.95 g/m*3 18.2 C 3.2 km/h
829 27-08-2020 21:00:00 18 C 9.98 g/m*3 18 C 4.8 km/h
830 27-08-2020 21:05:00 17.8 C 9.87 g/m*3 17.8 C 4.8 km/h
831 27-08-2020 21:10:00 17.7 C 9.96 g/m*3 17.7 C 0 km/h
832 27-08-2020 21:15:00 17.6 C 9.9 g/m*3 17.6 C 0 km/h
833 27-08-2020 21:20:00 17.5 C 9.84 g/m*3 17.5 C 0 km/h
834 27-08-2020 21:25:00 17.4 C 9.78 g/m*3 17.4 C 0 km/h
835 27-08-2020 21:30:00 17.3 C 9.87 g/m*3 17.3 C 4.8 km/h
836 27-08-2020 21:35:00 17.3 C 10.02 g/m*3 17.3 C 4.8 km/h
837 27-08-2020 21:40:00 17.3 C 9.87 g/m*3 17.3 C 6.4 km/h
838 27-08-2020 21:45:00 17.3 C 9.87 g/m*3 17.3 C 4.8 km/h
839 27-08-2020 21:50:00 17.3 C 9.87 g/m*3 17.3 C 0 km/h
840 27-08-2020 21:55:00 17.3 C 9.87 g/m*3 17.3 C 0 km/h
841 27-08-2020 22:00:00 17.3 C 9.87 g/m*3 17.3 C 0 km/h
842 27-08-2020 22:05:00 17.3 C 10.02 g/m*3 17.3 C 0 km/h
843 27-08-2020 22:10:00 17.3 C 10.16 g/m*3 17.3 C 0 km/h
844 27-08-2020 22:15:00 17.3 C 10.16 g/m*3 17.3 C 0 km/h
845 27-08-2020 22:20:00 17.3 C 10.16 g/m*3 17.3 C 0 km/h
846 27-08-2020 22:25:00 17.2 C 9.96 g/m*3 17.2 C 0 km/h
847 27-08-2020 22:30:00 17.2 C 10.1 g/m*3 17.2 C 0 km/h
848 27-08-2020 22:35:00 17.1 C 10.04 g/m*3 17.1 C 0 km/h
849 27-08-2020 22:40:00 17.1 C 10.04 g/m*3 17.1 C 0 km/h
850 27-08-2020 22:45:00 17.1 C 10.19 g/m*3 17.1 C 0 km/h
Sensor: Nr:Datum:Temp:Abs-Feuchte:Windchill:Wind:
Aussen-T/F 851 27-08-2020 22:50:00 17.1 C 10.19 g/m*3 17.1 C 0 km/h
852 27-08-2020 22:55:00 17.2 C 10.4 g/m*3 17.2 C 0 km/h
853 27-08-2020 23:00:00 17.3 C 10.46 g/m*3 17.3 C 0 km/h
854 27-08-2020 23:05:00 17.3 C 10.46 g/m*3 17.3 C 0 km/h
855 27-08-2020 23:10:00 17.5 C 10.88 g/m*3 17.5 C 0 km/h
856 27-08-2020 23:15:00 17.6 C 11.25 g/m*3 17.6 C 0 km/h
857 27-08-2020 23:20:00 17.6 C 11.4 g/m*3 17.6 C 0 km/h
858 27-08-2020 23:25:00 17.6 C 10.95 g/m*3 17.6 C 0 km/h
859 27-08-2020 23:30:00 17.6 C 11.55 g/m*3 17.6 C 0 km/h
860 27-08-2020 23:35:00 17.6 C 11.85 g/m*3 17.6 C 0 km/h
861 27-08-2020 23:40:00 17.5 C 11.93 g/m*3 17.5 C 0 km/h
862 27-08-2020 23:45:00 17.3 C 11.93 g/m*3 17.3 C 0 km/h
863 27-08-2020 23:50:00 17.1 C 11.94 g/m*3 17.1 C 8.1 km/h
864 27-08-2020 23:55:00 16.9 C 11.94 g/m*3 16.9 C 6.4 km/h

Legende:
   Min
   Max


Maximal/Minimal-Werte vom 25.08.2020 - 27.08.2020

Sensor Min Max Avg
Temp
(Aussen-T/F)
12.6 °C
27-08-2020  07:05:00
27 °C
25-08-2020  18:45:00
19.4 °C
Abs-Feuchte
(Aussen-T/F)
9.39 g/m*3
27-08-2020  18:45:00
14.92 g/m*3
25-08-2020  17:05:00
10.87 g/m*3
Windchill
(Aussen-T/F)
12.6 C
27-08-2020  07:05:00
27 C
25-08-2020  18:45:00
19.38 C

Die Daten stammen von einer Davis Vantage Pro 2 Wetter-Station und werden unter Linux mit der Software wview2wettercgi und aufbereitet. Alle Angaben erfolgen ohne Gewähr für ihre Vollständigkeit oder Richtigkeit.
Kontakt: Rainer Krienke krienke@uni-koblenz.de . Meine Webseiten an der Uni Koblenz oder privat.
Version: $Revision: 0.78 $